Time;durP1;ratioP1;P1;durP2;ratioP2;P2;SDS_P1;SDS_P2;PMS_P1;PMS_P2;Temp;Humidity;BMP_temperature;BMP_pressure;BME280_temperature;BME280_humidity;BME280_pressure;Samples;Min_cycle;Max_cycle;Signal;HPM_P1;HPM_P2
2022/04/07 00:00:46;;;;;;;16.25;6.70;;;8.70;99.90;;;;;;5000805;28;20067;-88
2022/04/07 00:03:17;;;;;;;11.07;4.80;;;8.70;99.90;;;;;;5013681;28;20080;-90
2022/04/07 00:05:45;;;;;;;13.48;5.22;;;8.70;99.90;;;;;;5013833;28;20124;-89
2022/04/07 00:08:11;;;;;;;12.13;5.13;;;8.70;99.90;;;;;;5027202;28;20894;-90
2022/04/07 00:10:37;;;;;;;12.38;5.80;;;8.70;99.90;;;;;;5031461;28;20128;-88
2022/04/07 00:13:06;;;;;;;12.35;4.50;;;8.60;99.90;;;;;;5029679;28;20391;-91
2022/04/07 00:15:36;;;;;;;15.00;5.38;;;8.60;99.90;;;;;;5003905;28;20091;-92
2022/04/07 00:18:07;;;;;;;11.98;4.93;;;8.50;99.90;;;;;;5021659;28;20124;-90
2022/04/07 00:20:46;;;;;;;14.57;5.32;;;8.50;99.90;;;;;;5031325;28;20061;-89
2022/04/07 00:23:19;;;;;;;4.50;2.58;;;8.50;99.90;;;;;;5016823;28;20068;-90
2022/04/07 00:25:47;;;;;;;9.68;3.80;;;8.50;99.90;;;;;;5033222;28;20103;-90
2022/04/07 00:28:15;;;;;;;14.15;4.65;;;8.50;99.90;;;;;;5011640;28;20056;-90
2022/04/07 00:30:49;;;;;;;13.40;5.90;;;8.40;99.90;;;;;;5016511;28;20080;-90
2022/04/07 00:33:15;;;;;;;14.18;6.15;;;8.40;99.90;;;;;;4997408;28;20046;-89
2022/04/07 00:35:41;;;;;;;15.77;6.70;;;8.40;99.90;;;;;;4999538;28;20072;-90
2022/04/07 00:38:10;;;;;;;19.65;7.95;;;8.40;99.90;;;;;;5011129;28;20567;-90
2022/04/07 00:40:35;;;;;;;14.95;7.40;;;8.40;99.90;;;;;;5002731;28;20041;-91
2022/04/07 00:43:08;;;;;;;12.95;7.53;;;8.40;99.90;;;;;;5016192;28;20084;-89
2022/04/07 00:45:37;;;;;;;19.17;7.30;;;8.40;99.90;;;;;;5033119;28;20064;-89
2022/04/07 00:48:03;;;;;;;11.88;6.22;;;8.40;99.90;;;;;;5015995;28;20053;-90
2022/04/07 00:50:29;;;;;;;13.88;5.88;;;8.40;99.90;;;;;;5014874;28;20068;-90
2022/04/07 00:52:58;;;;;;;9.77;5.88;;;8.40;99.90;;;;;;5032794;28;20570;-94
2022/04/07 00:55:25;;;;;;;10.70;5.20;;;8.40;99.90;;;;;;5025761;28;20053;-89
2022/04/07 00:57:59;;;;;;;8.15;3.58;;;8.30;99.90;;;;;;5025206;28;20057;-89
2022/04/07 01:00:24;;;;;;;7.20;2.30;;;8.30;99.90;;;;;;5032633;28;20728;-90
2022/04/07 01:02:53;;;;;;;4.72;2.22;;;8.20;99.90;;;;;;5035829;28;20057;-90
2022/04/07 01:05:20;;;;;;;7.65;2.05;;;8.10;99.90;;;;;;5002128;28;20060;-91
2022/04/07 01:07:46;;;;;;;4.70;1.45;;;8.10;99.90;;;;;;5033726;28;20132;-91
2022/04/07 01:10:28;;;;;;;5.30;1.75;;;8.00;99.90;;;;;;5017201;28;20479;-91
2022/04/07 01:12:57;;;;;;;5.78;1.60;;;8.00;99.90;;;;;;5027902;28;20045;-91
2022/04/07 01:15:23;;;;;;;7.90;2.70;;;8.00;99.90;;;;;;5029272;28;20042;-91
2022/04/07 01:17:52;;;;;;;7.82;3.75;;;8.10;99.90;;;;;;5017383;28;20053;-92
2022/04/07 01:20:18;;;;;;;4.32;2.90;;;8.10;99.90;;;;;;5014569;28;20041;-91
2022/04/07 01:22:48;;;;;;;6.35;3.97;;;8.20;99.90;;;;;;5020142;28;20045;-91
2022/04/07 01:25:17;;;;;;;10.50;5.13;;;8.20;99.90;;;;;;5038157;28;20545;-93
2022/04/07 01:27:49;;;;;;;5.35;2.58;;;8.20;99.90;;;;;;5019415;28;20060;-92
2022/04/07 01:30:17;;;;;;;9.75;4.22;;;8.20;99.90;;;;;;5015271;28;20037;-90
2022/04/07 01:32:49;;;;;;;10.05;4.82;;;8.20;99.90;;;;;;4999323;28;20045;-89
2022/04/07 01:35:16;;;;;;;8.93;5.20;;;8.20;99.90;;;;;;5015478;28;20095;-89
2022/04/07 01:37:46;;;;;;;14.25;5.63;;;8.20;99.90;;;;;;5026112;28;20048;-91
2022/04/07 01:40:15;;;;;;;7.35;4.22;;;8.20;99.90;;;;;;5015549;28;20054;-90
2022/04/07 01:42:52;;;;;;;13.63;6.32;;;8.20;99.90;;;;;;5015592;28;20052;-88
2022/04/07 01:45:19;;;;;;;14.18;7.22;;;8.20;99.90;;;;;;5012135;28;20052;-89
2022/04/07 01:47:45;;;;;;;18.85;7.95;;;8.20;99.90;;;;;;5031158;28;20125;-89
2022/04/07 01:50:16;;;;;;;13.50;7.03;;;8.20;99.90;;;;;;5014193;28;20049;-89
2022/04/07 01:52:50;;;;;;;16.02;9.20;;;8.30;99.90;;;;;;5014786;28;20060;-90
2022/04/07 01:55:16;;;;;;;11.82;5.13;;;8.30;99.90;;;;;;5017806;28;20041;-88
2022/04/07 01:57:46;;;;;;;17.48;9.27;;;8.30;99.90;;;;;;5030288;28;20038;-89
2022/04/07 02:00:16;;;;;;;15.27;7.97;;;8.30;99.90;;;;;;5012143;28;20049;-89
2022/04/07 02:02:50;;;;;;;17.25;7.65;;;8.30;99.90;;;;;;5028989;28;20053;-88
2022/04/07 02:05:16;;;;;;;17.23;8.95;;;8.30;99.90;;;;;;5003775;28;20505;-89
2022/04/07 02:07:44;;;;;;;14.45;7.30;;;8.30;99.90;;;;;;5013501;28;20128;-90
2022/04/07 02:10:18;;;;;;;15.23;6.25;;;8.30;99.90;;;;;;5013377;28;20085;-90
2022/04/07 02:12:46;;;;;;;18.80;7.22;;;8.30;99.90;;;;;;5029041;28;20053;-90
2022/04/07 02:15:33;;;;;;;22.55;7.20;;;8.30;99.90;;;;;;5030671;28;20050;-91
2022/04/07 02:17:58;;;;;;;15.18;6.25;;;8.30;99.90;;;;;;5015636;28;20053;-88
2022/04/07 02:20:24;;;;;;;12.32;4.68;;;8.30;99.90;;;;;;5011913;28;20120;-88
2022/04/07 02:22:50;;;;;;;15.45;6.10;;;8.20;99.90;;;;;;5005598;28;20080;-87
2022/04/07 02:25:16;;;;;;;17.67;6.88;;;8.20;99.90;;;;;;5014279;28;20076;-89
2022/04/07 02:27:45;;;;;;;11.80;5.35;;;8.20;99.90;;;;;;5012987;28;20072;-88
2022/04/07 02:30:16;;;;;;;13.65;5.15;;;8.20;99.90;;;;;;5031608;28;20053;-89
2022/04/07 02:32:50;;;;;;;17.67;6.22;;;8.20;99.90;;;;;;5015053;28;20045;-89
2022/04/07 02:35:22;;;;;;;12.63;4.80;;;8.20;99.90;;;;;;5015548;28;20060;-89
2022/04/07 02:37:47;;;;;;;16.90;5.60;;;8.10;99.90;;;;;;5023338;28;20045;-89
2022/04/07 02:40:15;;;;;;;25.20;5.57;;;8.10;99.90;;;;;;5014358;28;20140;-90
2022/04/07 02:42:46;;;;;;;14.55;5.38;;;8.20;99.90;;;;;;4998350;28;20045;-88
2022/04/07 02:45:12;;;;;;;11.63;4.13;;;8.10;99.90;;;;;;5025728;28;20038;-88
2022/04/07 02:47:40;;;;;;;15.80;5.93;;;8.20;99.90;;;;;;5027713;28;20045;-88
2022/04/07 02:50:07;;;;;;;18.35;5.88;;;8.20;99.90;;;;;;5017831;28;20057;-89
2022/04/07 02:52:35;;;;;;;19.90;6.15;;;8.20;99.90;;;;;;4998677;28;20046;-88
2022/04/07 02:55:02;;;;;;;17.08;6.07;;;8.30;99.90;;;;;;5031030;28;20049;-88
2022/04/07 02:57:34;;;;;;;19.45;5.22;;;8.20;99.90;;;;;;5014588;28;20054;-88
2022/04/07 03:00:00;;;;;;;21.52;5.93;;;8.20;99.90;;;;;;5012895;28;20861;-88
2022/04/07 03:02:27;;;;;;;17.02;5.70;;;8.20;99.90;;;;;;4996761;28;20041;-88
2022/04/07 03:04:55;;;;;;;15.40;5.35;;;8.20;99.90;;;;;;5025158;28;20092;-89
2022/04/07 03:07:24;;;;;;;12.40;4.13;;;8.20;99.90;;;;;;5013875;28;20769;-89
2022/04/07 03:09:50;;;;;;;21.08;6.38;;;8.20;99.90;;;;;;4996138;28;20057;-89
2022/04/07 03:12:15;;;;;;;17.55;5.25;;;8.30;99.90;;;;;;4997505;28;20118;-88
2022/04/07 03:14:44;;;;;;;18.42;5.45;;;8.30;99.90;;;;;;5014452;28;20055;-89
2022/04/07 03:17:10;;;;;;;21.17;5.43;;;8.20;99.90;;;;;;5003079;28;20049;-89
2022/04/07 03:19:35;;;;;;;13.20;5.15;;;8.20;99.90;;;;;;5026924;28;20041;-89
2022/04/07 03:22:09;;;;;;;17.67;5.30;;;8.20;99.90;;;;;;4997793;28;20141;-92
2022/04/07 03:24:38;;;;;;;22.05;6.70;;;8.30;99.90;;;;;;5017406;28;20061;-90
2022/04/07 03:27:07;;;;;;;18.98;5.85;;;8.20;99.90;;;;;;5015166;28;20052;-91
2022/04/07 03:29:46;;;;;;;23.08;6.72;;;8.20;99.90;;;;;;5011083;28;20046;-91
2022/04/07 03:32:20;;;;;;;13.85;4.95;;;8.20;99.90;;;;;;5010046;28;20037;-91
2022/04/07 03:34:45;;;;;;;15.60;4.93;;;8.20;99.90;;;;;;5013287;28;20115;-90
2022/04/07 03:37:14;;;;;;;16.08;4.25;;;8.20;99.90;;;;;;5012776;28;20046;-89
2022/04/07 03:39:40;;;;;;;11.13;3.65;;;8.20;99.90;;;;;;5015190;28;20053;-89
2022/04/07 03:42:06;;;;;;;9.95;3.22;;;8.10;99.90;;;;;;5014322;28;20042;-93
2022/04/07 03:44:32;;;;;;;16.13;2.92;;;8.10;99.90;;;;;;5018162;28;20046;-88
2022/04/07 03:47:08;;;;;;;13.85;3.38;;;8.00;99.90;;;;;;5017417;28;20052;-89
2022/04/07 03:49:33;;;;;;;10.77;2.70;;;8.10;99.90;;;;;;5010887;28;20132;-89
2022/04/07 03:52:12;;;;;;;;;;;;;;;;;;;;;
2022/04/07 03:54:46;;;;;;;18.77;4.28;;;8.00;99.90;;;;;;5036799;28;20053;-89
2022/04/07 03:57:17;;;;;;;12.30;3.10;;;8.00;99.90;;;;;;5032244;28;20123;-88
2022/04/07 03:59:43;;;;;;;19.45;4.10;;;8.00;99.90;;;;;;5015986;28;20049;-89
2022/04/07 04:02:10;;;;;;;15.73;4.10;;;8.00;99.90;;;;;;5017519;28;20099;-92
2022/04/07 04:04:36;;;;;;;16.70;4.28;;;8.10;99.90;;;;;;5017839;28;20096;-90
2022/04/07 04:07:06;;;;;;;15.18;4.03;;;8.10;99.90;;;;;;5017693;28;20065;-90
2022/04/07 04:09:34;;;;;;;16.73;5.68;;;8.10;99.90;;;;;;5024785;28;20045;-89
2022/04/07 04:12:00;;;;;;;12.23;4.20;;;8.10;99.90;;;;;;5017541;28;20468;-89
2022/04/07 04:14:25;;;;;;;12.57;3.90;;;8.20;99.90;;;;;;5004342;28;20132;-90
2022/04/07 04:16:54;;;;;;;16.75;4.32;;;8.20;99.90;;;;;;4991997;28;20041;-89
2022/04/07 04:19:20;;;;;;;16.42;4.50;;;8.30;99.90;;;;;;5015770;28;20067;-91
2022/04/07 04:21:46;;;;;;;16.60;5.60;;;8.20;99.90;;;;;;5034036;28;20487;-89
2022/04/07 04:24:17;;;;;;;17.88;5.00;;;8.20;99.90;;;;;;5017638;28;20478;-90
2022/04/07 04:26:45;;;;;;;18.63;4.82;;;8.20;99.90;;;;;;5018222;28;20045;-89
2022/04/07 04:29:13;;;;;;;20.20;5.82;;;8.10;99.90;;;;;;5017116;28;20046;-91
2022/04/07 04:31:39;;;;;;;23.40;5.40;;;8.10;99.90;;;;;;5017123;28;20042;-89
2022/04/07 04:34:05;;;;;;;22.48;5.55;;;8.10;99.90;;;;;;5033652;28;20052;-88
2022/04/07 04:36:40;;;;;;;26.70;5.72;;;8.10;99.90;;;;;;5032496;28;20605;-90
2022/04/07 04:39:05;;;;;;;29.33;6.60;;;8.10;99.90;;;;;;5034069;28;20143;-89
2022/04/07 04:41:34;;;;;;;28.08;6.85;;;8.10;99.90;;;;;;5008974;28;20104;-89
2022/04/07 04:44:00;;;;;;;28.17;6.45;;;8.10;99.90;;;;;;5012601;28;20052;-88
2022/04/07 04:46:27;;;;;;;30.23;6.75;;;8.10;99.90;;;;;;5021469;28;20053;-91
2022/04/07 04:49:05;;;;;;;;;;;;;;;;;;;;;
2022/04/07 04:51:34;;;;;;;27.80;7.15;;;8.10;99.90;;;;;;5035907;28;20093;-90
2022/04/07 04:54:03;;;;;;;22.92;6.22;;;8.10;99.90;;;;;;5014364;28;20132;-90
2022/04/07 04:56:38;;;;;;;26.55;6.53;;;8.10;99.90;;;;;;5018758;28;20092;-93
2022/04/07 04:59:07;;;;;;;27.48;6.05;;;8.10;99.90;;;;;;4997084;28;20051;-87
2022/04/07 05:01:36;;;;;;;33.53;6.78;;;8.10;99.90;;;;;;5005392;28;20045;-95
2022/04/07 05:04:01;;;;;;;34.00;7.70;;;8.10;99.90;;;;;;5016312;28;20041;-87
2022/04/07 05:06:30;;;;;;;26.42;5.13;;;8.00;99.90;;;;;;5015622;28;20570;-89
2022/04/07 05:08:55;;;;;;;32.42;7.07;;;8.00;99.90;;;;;;5015297;28;20064;-90
2022/04/07 05:11:21;;;;;;;17.25;5.28;;;8.10;99.90;;;;;;5015765;28;20041;-88
2022/04/07 05:13:47;;;;;;;26.33;5.75;;;8.10;99.90;;;;;;5014292;28;20141;-87
2022/04/07 05:16:15;;;;;;;20.25;3.88;;;8.00;99.90;;;;;;5004452;28;20050;-90
2022/04/07 05:18:46;;;;;;;24.67;4.28;;;8.00;99.90;;;;;;5024108;28;20050;-89
2022/04/07 05:21:14;;;;;;;20.73;4.03;;;7.90;99.90;;;;;;5027865;28;20045;-87
2022/04/07 05:23:40;;;;;;;19.80;3.60;;;7.90;99.90;;;;;;5006435;28;20049;-89
2022/04/07 05:26:06;;;;;;;13.95;3.22;;;7.80;99.90;;;;;;5033231;28;20474;-92
2022/04/07 05:28:32;;;;;;;12.68;2.75;;;7.70;99.90;;;;;;5026117;28;20046;-90
2022/04/07 05:30:57;;;;;;;11.23;3.50;;;7.50;99.90;;;;;;4999812;28;20041;-88
2022/04/07 05:33:23;;;;;;;13.25;3.58;;;7.40;99.90;;;;;;5030133;28;20483;-87
2022/04/07 05:35:49;;;;;;;19.27;3.97;;;7.40;99.90;;;;;;5025423;28;20046;-87
2022/04/07 05:38:15;;;;;;;23.25;4.78;;;7.40;99.90;;;;;;5015817;28;20052;-91
2022/04/07 05:40:45;;;;;;;26.80;6.45;;;7.50;99.90;;;;;;5015973;28;20038;-89
2022/04/07 05:43:21;;;;;;;21.95;6.43;;;7.50;99.90;;;;;;5033209;28;20506;-86
2022/04/07 05:45:49;;;;;;;30.20;10.40;;;7.70;99.90;;;;;;5031417;28;20150;-92
2022/04/07 05:48:20;;;;;;;22.88;7.38;;;7.80;99.90;;;;;;5033365;28;20140;-93
2022/04/07 05:50:45;;;;;;;5.90;1.10;;;7.80;99.90;;;;;;5000136;28;20034;-87
2022/04/07 05:53:11;;;;;;;13.15;1.00;;;6.90;99.90;;;;;;5015577;28;20521;-90
2022/04/07 05:55:38;;;;;;;6.40;3.03;;;4.80;99.90;;;;;;5012725;28;20053;-91
2022/04/07 05:58:17;;;;;;;;;;;;;;;;;;;;;
2022/04/07 06:00:45;;;;;;;7.80;3.30;;;3.60;99.90;;;;;;5037080;28;20041;-89
2022/04/07 06:03:12;;;;;;;14.05;6.97;;;3.50;99.90;;;;;;5003523;28;20526;-90
2022/04/07 06:05:38;;;;;;;8.18;3.92;;;3.60;99.90;;;;;;5012233;28;20046;-88
2022/04/07 06:08:04;;;;;;;10.27;2.20;;;3.60;99.90;;;;;;4995969;28;20488;-89
2022/04/07 06:10:36;;;;;;;11.82;4.20;;;3.60;99.90;;;;;;5012215;28;20093;-88
2022/04/07 06:13:05;;;;;;;12.95;5.45;;;3.70;99.90;;;;;;4996064;28;20056;-88
2022/04/07 06:15:33;;;;;;;12.20;3.28;;;3.70;99.90;;;;;;5012101;28;20045;-89
2022/04/07 06:18:08;;;;;;;13.32;5.47;;;3.70;99.90;;;;;;4997044;28;20574;-89
2022/04/07 06:20:36;;;;;;;15.38;4.30;;;3.80;99.90;;;;;;4996253;28;20085;-89
2022/04/07 06:23:04;;;;;;;14.38;3.65;;;3.90;99.90;;;;;;4995247;28;20052;-87
2022/04/07 06:25:35;;;;;;;12.35;2.40;;;3.90;99.90;;;;;;4979434;28;20786;-87
2022/04/07 06:28:02;;;;;;;7.00;1.42;;;4.00;99.90;;;;;;4996056;28;20089;-87
2022/04/07 06:30:28;;;;;;;11.48;1.95;;;4.20;99.90;;;;;;5011805;28;20534;-88
2022/04/07 06:32:55;;;;;;;9.50;1.70;;;4.30;99.90;;;;;;4995121;28;20137;-87
2022/04/07 06:35:26;;;;;;;6.88;1.20;;;4.40;99.90;;;;;;5011413;28;20392;-87
2022/04/07 06:37:55;;;;;;;0.00;0.00;;;4.50;99.90;;;;;;4995427;28;20069;-87
2022/04/07 06:40:26;;;;;;;7.00;1.30;;;4.60;99.90;;;;;;4994501;28;20054;-87
2022/04/07 06:42:54;;;;;;;2.53;0.90;;;4.50;99.90;;;;;;4994202;28;20077;-87
2022/04/07 06:45:20;;;;;;;5.45;0.90;;;4.60;99.90;;;;;;4994807;28;20507;-88
2022/04/07 06:47:46;;;;;;;4.40;0.77;;;4.50;99.90;;;;;;4978994;28;20084;-87
2022/04/07 06:50:14;;;;;;;4.53;1.00;;;4.60;99.90;;;;;;4978988;28;20053;-86
2022/04/07 06:52:41;;;;;;;2.13;0.80;;;4.60;99.90;;;;;;5009948;28;20132;-86
2022/04/07 06:55:07;;;;;;;7.85;1.13;;;4.70;99.90;;;;;;5018242;28;20052;-87
2022/04/07 06:57:51;;;;;;;4.32;1.20;;;4.80;99.90;;;;;;5032895;28;20148;-87
2022/04/07 07:00:18;;;;;;;4.97;0.77;;;4.80;99.90;;;;;;5033203;28;20493;-86
2022/04/07 07:02:51;;;;;;;3.97;0.80;;;4.80;99.90;;;;;;5017060;28;20042;-87
2022/04/07 07:05:19;;;;;;;7.07;0.80;;;4.90;99.90;;;;;;4995902;28;20467;-87
2022/04/07 07:07:44;;;;;;;2.50;0.63;;;4.90;99.90;;;;;;5010883;28;20057;-86
2022/04/07 07:10:11;;;;;;;3.60;0.80;;;5.00;99.90;;;;;;4978899;28;20546;-86
2022/04/07 07:12:37;;;;;;;4.20;0.88;;;5.00;99.90;;;;;;5011012;28;20053;-87
2022/04/07 07:15:03;;;;;;;3.10;0.60;;;5.00;99.90;;;;;;4978255;28;20050;-86
2022/04/07 07:17:33;;;;;;;4.03;0.88;;;5.00;99.90;;;;;;4994248;28;20053;-86
2022/04/07 07:20:07;;;;;;;4.07;0.70;;;5.10;99.90;;;;;;4978082;28;20053;-86
2022/04/07 07:22:33;;;;;;;3.00;0.73;;;5.00;99.90;;;;;;5010629;28;20057;-85
2022/04/07 07:24:59;;;;;;;3.20;0.50;;;4.90;99.90;;;;;;4994701;28;20049;-87
2022/04/07 07:27:25;;;;;;;2.17;0.52;;;5.10;99.90;;;;;;4993869;28;20333;-86
2022/04/07 07:29:51;;;;;;;2.90;0.60;;;5.00;99.90;;;;;;4993773;28;20137;-86
2022/04/07 07:32:16;;;;;;;4.90;0.90;;;4.90;99.90;;;;;;4994169;28;20085;-86
2022/04/07 07:34:42;;;;;;;2.13;0.60;;;5.00;99.90;;;;;;4978215;28;20141;-86
2022/04/07 07:37:08;;;;;;;2.80;0.70;;;5.00;99.90;;;;;;4978307;28;20495;-86
2022/04/07 07:39:34;;;;;;;2.83;0.57;;;5.00;99.90;;;;;;4977967;28;20054;-86
2022/04/07 07:42:00;;;;;;;4.25;0.93;;;5.00;99.90;;;;;;5010518;28;20045;-85
2022/04/07 07:44:25;;;;;;;5.57;1.10;;;5.00;99.90;;;;;;4977895;28;20561;-85
2022/04/07 07:46:51;;;;;;;4.28;0.82;;;5.00;99.90;;;;;;4993543;28;20061;-85
2022/04/07 07:49:17;;;;;;;1.77;1.05;;;5.00;99.90;;;;;;4977877;28;20153;-86
2022/04/07 07:51:43;;;;;;;5.53;0.80;;;5.00;99.90;;;;;;4992753;28;20096;-89
2022/04/07 07:54:11;;;;;;;4.03;0.95;;;5.10;99.90;;;;;;4998988;28;20132;-84
2022/04/07 07:56:37;;;;;;;3.85;0.90;;;5.00;99.90;;;;;;4996992;28;20195;-85
2022/04/07 07:59:02;;;;;;;5.10;1.20;;;5.00;99.90;;;;;;4997850;28;20084;-85
2022/04/07 08:01:28;;;;;;;4.55;1.00;;;5.00;99.90;;;;;;5012839;28;20113;-85
2022/04/07 08:03:54;;;;;;;5.55;0.85;;;5.10;99.90;;;;;;5013693;28;20103;-85
2022/04/07 08:06:22;;;;;;;4.68;1.20;;;5.10;99.90;;;;;;5012949;28;20593;-84
2022/04/07 08:08:48;;;;;;;3.70;0.85;;;5.20;99.90;;;;;;5029025;28;20057;-85
2022/04/07 08:11:16;;;;;;;10.30;1.20;;;5.20;99.90;;;;;;5013250;28;20057;-85
2022/04/07 08:13:44;;;;;;;5.55;0.88;;;5.30;99.90;;;;;;5012844;28;20515;-84
2022/04/07 08:16:10;;;;;;;5.13;1.40;;;5.40;99.90;;;;;;4997272;28;20053;-85
2022/04/07 08:18:36;;;;;;;3.40;0.80;;;5.40;99.90;;;;;;4996759;28;20053;-86
2022/04/07 08:21:01;;;;;;;3.92;0.95;;;5.50;99.90;;;;;;4996991;28;20049;-85
2022/04/07 08:23:27;;;;;;;5.70;0.88;;;5.40;99.90;;;;;;4996793;28;20498;-85
2022/04/07 08:25:53;;;;;;;5.82;0.77;;;5.40;99.90;;;;;;4997581;28;20049;-85
2022/04/07 08:28:18;;;;;;;5.88;0.82;;;5.50;99.90;;;;;;5016856;28;20041;-85
2022/04/07 08:30:44;;;;;;;3.03;0.90;;;5.50;99.90;;;;;;5000213;28;20048;-85
2022/04/07 08:33:10;;;;;;;5.05;1.27;;;5.60;99.90;;;;;;5033320;28;20056;-85
2022/04/07 08:35:35;;;;;;;5.28;1.17;;;5.60;99.90;;;;;;5000234;28;20049;-86
2022/04/07 08:38:01;;;;;;;6.18;1.48;;;5.70;99.90;;;;;;5017139;28;20060;-85
2022/04/07 08:40:28;;;;;;;4.85;1.20;;;5.80;99.90;;;;;;5016369;28;20045;-86
2022/04/07 08:42:57;;;;;;;5.30;1.10;;;5.90;99.90;;;;;;5016520;28;20465;-85
2022/04/07 08:45:23;;;;;;;5.32;0.98;;;6.10;99.90;;;;;;5016927;28;20084;-85
2022/04/07 08:47:50;;;;;;;4.20;1.13;;;6.30;99.90;;;;;;4999743;28;20049;-85
2022/04/07 08:50:20;;;;;;;4.80;1.10;;;6.30;99.90;;;;;;5032722;28;20053;-85
2022/04/07 08:52:46;;;;;;;4.57;0.95;;;6.50;99.90;;;;;;5000054;28;20506;-86
2022/04/07 08:55:12;;;;;;;3.90;1.00;;;6.40;99.90;;;;;;5016318;28;20045;-85
2022/04/07 08:57:40;;;;;;;7.05;1.25;;;6.60;99.90;;;;;;5032153;28;20520;-85
2022/04/07 09:00:07;;;;;;;7.10;1.17;;;6.70;99.90;;;;;;5032253;28;20490;-85
2022/04/07 09:02:32;;;;;;;6.43;1.42;;;6.80;99.90;;;;;;5009033;28;20046;-86
2022/04/07 09:04:59;;;;;;;6.68;0.90;;;7.20;99.90;;;;;;4996634;28;20391;-85
2022/04/07 09:07:32;;;;;;;5.60;1.10;;;7.40;99.90;;;;;;4979316;28;20148;-88
2022/04/07 09:10:00;;;;;;;5.45;1.05;;;7.50;99.90;;;;;;4995476;28;20042;-86
2022/04/07 09:12:26;;;;;;;5.25;1.35;;;7.50;99.90;;;;;;4995853;28;20089;-87
2022/04/07 09:14:59;;;;;;;3.08;0.90;;;7.50;99.90;;;;;;4995946;28;20091;-85
2022/04/07 09:17:26;;;;;;;3.60;0.77;;;7.60;99.90;;;;;;5011946;28;20060;-87
2022/04/07 09:19:55;;;;;;;10.10;1.42;;;7.80;99.90;;;;;;4996060;28;20045;-85
2022/04/07 09:22:31;;;;;;;6.38;1.15;;;7.80;99.90;;;;;;4995675;28;20085;-85
2022/04/07 09:25:03;;;;;;;9.18;1.10;;;7.90;99.90;;;;;;4995557;28;20050;-86
2022/04/07 09:27:29;;;;;;;3.83;1.17;;;8.10;99.90;;;;;;5011940;28;20104;-85
2022/04/07 09:29:55;;;;;;;5.53;0.93;;;8.10;99.90;;;;;;4963741;28;20054;-85
2022/04/07 09:32:23;;;;;;;5.20;1.00;;;8.10;99.90;;;;;;4963911;28;20054;-85
2022/04/07 09:34:57;;;;;;;6.53;1.67;;;8.20;99.90;;;;;;4995573;28;20050;-85
2022/04/07 09:37:24;;;;;;;4.63;0.98;;;8.70;99.90;;;;;;5011627;28;20045;-84
2022/04/07 09:40:12;;;;;;;9.25;1.10;;;8.80;99.90;;;;;;4979531;28;20050;-85
2022/04/07 09:42:41;;;;;;;4.18;1.10;;;8.70;99.90;;;;;;4995588;28;20510;-86
2022/04/07 09:45:11;;;;;;;7.75;1.67;;;8.50;99.90;;;;;;4980759;28;20384;-85
2022/04/07 09:47:41;;;;;;;8.82;1.17;;;8.20;99.90;;;;;;4995938;28;20136;-85
2022/04/07 09:50:18;;;;;;;8.55;2.05;;;8.00;99.90;;;;;;4979468;28;20053;-85
2022/04/07 09:52:58;;;;;;;9.65;1.40;;;8.10;99.90;;;;;;4995288;28;20211;-84
2022/04/07 09:55:38;;;;;;;6.50;1.20;;;8.30;99.90;;;;;;5010131;28;20141;-86
2022/04/07 09:58:07;;;;;;;9.18;1.27;;;8.50;99.90;;;;;;5000556;28;20449;-86
2022/04/07 10:00:33;;;;;;;7.95;1.40;;;8.50;99.90;;;;;;5014971;28;20037;-85
2022/04/07 10:02:59;;;;;;;10.00;2.08;;;8.70;99.90;;;;;;5004721;28;20495;-85
2022/04/07 10:05:25;;;;;;;13.23;1.80;;;8.70;99.90;;;;;;4979215;28;20487;-85
2022/04/07 10:07:51;;;;;;;7.00;2.10;;;8.60;99.90;;;;;;4994312;28;20123;-85
2022/04/07 10:10:18;;;;;;;6.07;1.70;;;8.60;99.90;;;;;;4995179;28;20058;-86
2022/04/07 10:12:46;;;;;;;11.77;2.28;;;8.20;99.90;;;;;;4963065;28;20089;-85
2022/04/07 10:15:12;;;;;;;13.18;2.92;;;8.00;99.90;;;;;;4995468;28;20049;-85
2022/04/07 10:17:39;;;;;;;15.73;5.38;;;7.90;99.90;;;;;;5010646;28;20054;-85
2022/04/07 10:20:11;;;;;;;14.00;4.97;;;7.90;99.90;;;;;;4978625;28;20108;-85
2022/04/07 10:23:02;;;;;;;12.43;2.85;;;7.80;99.90;;;;;;4994129;28;20085;-86
2022/04/07 10:25:30;;;;;;;7.10;1.75;;;8.20;99.90;;;;;;4994988;28;20056;-85
2022/04/07 10:28:01;;;;;;;9.90;1.58;;;9.00;99.90;;;;;;5010718;28;20573;-86
2022/04/07 10:30:32;;;;;;;13.98;2.30;;;8.80;99.90;;;;;;4994338;28;20076;-85
2022/04/07 10:33:01;;;;;;;12.63;1.98;;;8.50;99.90;;;;;;4994799;28;20053;-85
2022/04/07 10:35:30;;;;;;;7.53;1.70;;;8.60;99.90;;;;;;5011163;28;20119;-85
2022/04/07 10:38:35;;;;;;;10.35;1.80;;;9.40;99.90;;;;;;4994376;28;20061;-85
2022/04/07 10:41:01;;;;;;;11.00;2.03;;;10.00;99.90;;;;;;4994404;28;20057;-84
2022/04/07 10:43:27;;;;;;;12.30;1.90;;;9.00;99.90;;;;;;4979007;28;20056;-85
2022/04/07 10:46:02;;;;;;;13.00;2.10;;;8.20;99.90;;;;;;5010573;28;20695;-85
2022/04/07 10:48:35;;;;;;;10.32;2.10;;;8.00;99.90;;;;;;4994452;28;20698;-85
2022/04/07 10:51:03;;;;;;;15.00;2.70;;;8.00;99.90;;;;;;4979115;28;20061;-85
2022/04/07 10:53:33;;;;;;;16.55;2.30;;;8.30;99.90;;;;;;4994616;28;20372;-85
2022/04/07 10:56:25;;;;;;;12.57;1.90;;;8.00;99.90;;;;;;5014285;28;20056;-86
2022/04/07 10:58:55;;;;;;;10.40;1.88;;;7.80;99.90;;;;;;5013612;28;20053;-85
2022/04/07 11:01:32;;;;;;;10.88;1.98;;;7.60;99.90;;;;;;5030633;28;20148;-85
2022/04/07 11:04:20;;;;;;;18.73;3.50;;;7.80;99.90;;;;;;5011964;28;20046;-86
2022/04/07 11:07:04;;;;;;;19.13;4.75;;;7.90;99.90;;;;;;5011481;28;20137;-86
2022/04/07 11:10:03;;;;;;;10.45;2.30;;;7.80;99.90;;;;;;5013226;28;20058;-85
2022/04/07 11:12:43;;;;;;;12.40;2.30;;;7.60;99.90;;;;;;5013868;28;20072;-86
2022/04/07 11:15:31;;;;;;;15.38;2.72;;;7.40;99.90;;;;;;5014356;28;20056;-84
2022/04/07 11:18:33;;;;;;;8.43;1.52;;;7.30;99.90;;;;;;5013745;28;20056;-87
2022/04/07 11:21:06;;;;;;;7.57;1.23;;;7.00;99.90;;;;;;4997770;28;20083;-88
2022/04/07 11:23:48;;;;;;;9.50;1.90;;;6.70;99.90;;;;;;5014667;28;20052;-86
2022/04/07 11:26:25;;;;;;;8.93;1.98;;;6.60;99.90;;;;;;4997785;28;20053;-85
2022/04/07 11:29:04;;;;;;;12.70;2.50;;;7.40;99.90;;;;;;4997205;28;20056;-85
2022/04/07 11:31:44;;;;;;;9.73;2.30;;;8.30;99.90;;;;;;4997400;28;20050;-86
2022/04/07 11:34:35;;;;;;;12.45;2.35;;;8.20;99.90;;;;;;4996709;28;20107;-86
2022/04/07 11:37:06;;;;;;;11.13;2.35;;;8.70;99.90;;;;;;5012442;28;20056;-85
2022/04/07 11:39:33;;;;;;;14.80;3.10;;;8.90;99.90;;;;;;4997304;28;20083;-84
2022/04/07 11:42:00;;;;;;;17.77;2.65;;;8.90;99.90;;;;;;4996515;28;20045;-85
2022/04/07 11:44:26;;;;;;;18.08;3.67;;;8.80;99.90;;;;;;5013245;28;20049;-86
2022/04/07 11:46:52;;;;;;;11.32;2.50;;;8.60;99.90;;;;;;5013434;28;20045;-85
2022/04/07 11:49:17;;;;;;;10.35;2.38;;;8.50;99.90;;;;;;5013621;28;20487;-85
2022/04/07 11:51:46;;;;;;;12.55;2.72;;;8.30;99.90;;;;;;4996887;28;20107;-85
2022/04/07 11:54:16;;;;;;;28.95;4.25;;;8.40;99.90;;;;;;5001565;28;20076;-85
2022/04/07 11:56:42;;;;;;;14.95;2.08;;;8.20;99.90;;;;;;5033009;28;20098;-84
2022/04/07 11:59:10;;;;;;;13.55;2.72;;;8.20;99.90;;;;;;5000868;28;20041;-85
2022/04/07 12:01:38;;;;;;;11.10;2.95;;;8.00;99.90;;;;;;5017844;28;20049;-89
2022/04/07 12:04:06;;;;;;;16.40;2.40;;;7.80;99.90;;;;;;4984669;28;20049;-86
2022/04/07 12:06:34;;;;;;;11.70;1.70;;;7.60;99.90;;;;;;4999612;28;20049;-86
2022/04/07 12:09:02;;;;;;;9.57;2.65;;;7.70;99.90;;;;;;5015841;28;20077;-85
2022/04/07 12:11:30;;;;;;;14.02;2.60;;;8.00;99.90;;;;;;4983713;28;20053;-85
2022/04/07 12:13:57;;;;;;;11.65;2.75;;;8.20;99.90;;;;;;4999947;28;20061;-86
2022/04/07 12:16:24;;;;;;;15.57;2.47;;;8.60;99.90;;;;;;5000536;28;20080;-85
2022/04/07 12:18:54;;;;;;;13.90;2.92;;;9.00;99.90;;;;;;4983579;28;20084;-85
2022/04/07 12:21:21;;;;;;;12.50;2.47;;;9.20;99.90;;;;;;4984096;28;20046;-85
2022/04/07 12:23:49;;;;;;;14.70;2.88;;;9.20;99.90;;;;;;4999694;28;20562;-85
2022/04/07 12:26:15;;;;;;;12.32;2.40;;;8.80;99.90;;;;;;5000049;28;20045;-85
2022/04/07 12:28:40;;;;;;;10.48;1.70;;;9.00;99.90;;;;;;4999737;28;20057;-86
2022/04/07 12:31:22;;;;;;;13.23;2.88;;;9.10;99.90;;;;;;5000244;28;20086;-87
2022/04/07 12:33:49;;;;;;;15.10;2.50;;;8.70;99.90;;;;;;4983732;28;20049;-86
2022/04/07 12:36:36;;;;;;;9.80;2.08;;;8.60;99.90;;;;;;5000713;28;20045;-85
2022/04/07 12:39:06;;;;;;;;;;;8.50;99.90;;;;;;5016723;28;20521;-85
2022/04/07 12:41:38;;;;;;;11.32;1.80;;;9.00;99.90;;;;;;4999998;28;20374;-85
2022/04/07 12:44:05;;;;;;;9.93;1.80;;;9.80;99.90;;;;;;4999895;28;20049;-85
2022/04/07 12:46:53;;;;;;;11.98;1.98;;;9.60;99.90;;;;;;5016548;28;20561;-84
2022/04/07 12:49:26;;;;;;;9.77;2.08;;;9.20;99.90;;;;;;5000072;28;20395;-85
2022/04/07 12:52:14;;;;;;;14.02;2.35;;;9.00;99.90;;;;;;4999917;28;20376;-84
2022/04/07 12:55:11;;;;;;;13.90;1.75;;;8.90;99.90;;;;;;5024270;28;20064;-86
2022/04/07 12:57:40;;;;;;;;;;;8.80;99.90;;;;;;5019920;28;20056;-85
2022/04/07 13:00:12;;;;;;;3.85;1.13;;;8.60;99.90;;;;;;5036129;28;20015;-86
2022/04/07 13:03:13;;;;;;;7.20;1.00;;;8.00;99.90;;;;;;5035508;28;20052;-86
2022/04/07 13:05:39;;;;;;;5.10;1.10;;;8.00;99.90;;;;;;5005253;28;20092;-85
2022/04/07 13:08:06;;;;;;;8.18;1.50;;;7.90;99.90;;;;;;5017822;28;20049;-84